Time;durP1;ratioP1;P1;durP2;ratioP2;P2;SDS_P1;SDS_P2;PMS_P1;PMS_P2;Temp;Humidity;BMP_temperature;BMP_pressure;BME280_temperature;BME280_humidity;BME280_pressure;Samples;Min_cycle;Max_cycle;Signal;HPM_P1;HPM_P2
2021/12/20 00:01:39;;;;;;;27.67;3.50;;;;;;;;;;5038200;28;20284;-67
2021/12/20 00:04:05;;;;;;;25.57;3.57;;;;;;;;;;5034681;28;20186;-67
2021/12/20 00:06:31;;;;;;;32.30;4.43;;;;;;;;;;5031478;28;20225;-67
2021/12/20 00:08:56;;;;;;;26.23;3.67;;;;;;;;;;5028683;28;20213;-67
2021/12/20 00:11:21;;;;;;;18.57;3.33;;;;;;;;;;5042679;28;20185;-67
2021/12/20 00:13:47;;;;;;;20.80;3.07;;;;;;;;;;5037450;28;20652;-67
2021/12/20 00:16:12;;;;;;;24.77;3.90;;;;;;;;;;5042778;28;20272;-67
2021/12/20 00:18:37;;;;;;;23.63;4.00;;;;;;;;;;5034530;28;20181;-67
2021/12/20 00:21:03;;;;;;;26.40;4.60;;;;;;;;;;5050508;28;20645;-67
2021/12/20 00:23:28;;;;;;;29.20;3.73;;;;;;;;;;5032345;28;20200;-67
2021/12/20 00:25:54;;;;;;;30.80;4.27;;;;;;;;;;5050449;28;20196;-67
2021/12/20 00:28:20;;;;;;;28.03;3.60;;;;;;;;;;5045301;28;20657;-67
2021/12/20 00:30:46;;;;;;;31.50;4.07;;;;;;;;;;5039063;28;20192;-67
2021/12/20 00:33:12;;;;;;;41.33;4.30;;;;;;;;;;5044242;28;20189;-67
2021/12/20 00:35:37;;;;;;;32.67;3.77;;;;;;;;;;5037090;28;20197;-67
2021/12/20 00:40:48;;;;;;;27.77;3.50;;;;;;;;;;5037119;28;20272;-67
2021/12/20 00:43:14;;;;;;;29.90;4.10;;;;;;;;;;5043220;28;20541;-67
2021/12/20 00:45:40;;;;;;;28.50;3.50;;;;;;;;;;5033866;28;20283;-67
2021/12/20 00:48:06;;;;;;;38.57;4.43;;;;;;;;;;5042196;28;20254;-67
2021/12/20 00:50:33;;;;;;;31.37;4.23;;;;;;;;;;5036221;28;20659;-67
2021/12/20 00:52:59;;;;;;;32.63;3.77;;;;;;;;;;5039519;28;20185;-67
2021/12/20 00:55:25;;;;;;;28.60;3.70;;;;;;;;;;5036847;28;20202;-67
2021/12/20 00:57:53;;;;;;;27.03;5.03;;;;;;;;;;5044290;28;20174;-67
2021/12/20 01:00:28;;;;;;;26.00;3.97;;;;;;;;;;5037908;28;20530;-67
2021/12/20 01:02:55;;;;;;;28.07;3.60;;;;;;;;;;5044137;28;20189;-67
2021/12/20 01:05:22;;;;;;;29.23;4.13;;;;;;;;;;5045059;28;20191;-67
2021/12/20 01:07:48;;;;;;;31.10;4.80;;;;;;;;;;5036823;28;20229;-67
2021/12/20 01:10:13;;;;;;;27.23;3.80;;;;;;;;;;5041289;28;20185;-67
2021/12/20 01:12:49;;;;;;;27.90;4.20;;;;;;;;;;5035184;28;20682;-67
2021/12/20 01:15:18;;;;;;;32.37;3.87;;;;;;;;;;5038928;28;20184;-67
2021/12/20 01:17:43;;;;;;;29.33;4.00;;;;;;;;;;5040648;28;20178;-67
2021/12/20 01:20:10;;;;;;;23.30;3.27;;;;;;;;;;5042365;28;20208;-67
2021/12/20 01:22:35;;;;;;;23.60;3.60;;;;;;;;;;5037967;28;20746;-67
2021/12/20 01:25:00;;;;;;;30.17;4.33;;;;;;;;;;5042155;28;20293;-67
2021/12/20 01:27:26;;;;;;;25.17;3.57;;;;;;;;;;5037549;28;20215;-67
2021/12/20 01:29:51;;;;;;;28.53;4.13;;;;;;;;;;5043227;28;20603;-67
2021/12/20 01:32:16;;;;;;;23.23;3.47;;;;;;;;;;5037936;28;20629;-67
2021/12/20 01:34:42;;;;;;;25.37;4.30;;;;;;;;;;5044594;28;20660;-67
2021/12/20 01:37:07;;;;;;;26.37;4.00;;;;;;;;;;5045547;28;20189;-67
2021/12/20 01:39:32;;;;;;;29.73;4.80;;;;;;;;;;5032286;28;20186;-67
2021/12/20 01:41:59;;;;;;;25.40;3.73;;;;;;;;;;5046200;28;20640;-67
2021/12/20 01:44:25;;;;;;;34.33;4.10;;;;;;;;;;5040443;28;20186;-67
2021/12/20 01:46:50;;;;;;;23.07;3.57;;;;;;;;;;5047072;28;20244;-67
2021/12/20 01:49:17;;;;;;;27.00;3.37;;;;;;;;;;5041194;28;20205;-67
2021/12/20 01:52:10;;;;;;;29.50;3.93;;;;;;;;;;5046494;28;21793;-67
2021/12/20 01:54:36;;;;;;;30.10;3.53;;;;;;;;;;5043030;28;20224;-67
2021/12/20 01:57:01;;;;;;;31.97;3.63;;;;;;;;;;5046252;28;20280;-67
2021/12/20 01:59:28;;;;;;;27.77;3.20;;;;;;;;;;5042477;28;20264;-67
2021/12/20 02:01:53;;;;;;;24.37;3.57;;;;;;;;;;5042915;28;20630;-67
2021/12/20 02:04:20;;;;;;;24.93;3.47;;;;;;;;;;5042590;28;20193;-67
2021/12/20 02:06:48;;;;;;;36.70;4.10;;;;;;;;;;5046089;28;20240;-67
2021/12/20 02:09:17;;;;;;;30.47;3.13;;;;;;;;;;5035229;28;20615;-67
2021/12/20 02:11:48;;;;;;;27.63;3.67;;;;;;;;;;5045451;28;20260;-67
2021/12/20 02:14:14;;;;;;;36.07;4.80;;;;;;;;;;5040067;28;20189;-67
2021/12/20 02:16:40;;;;;;;26.00;4.90;;;;;;;;;;5042705;28;20303;-67
2021/12/20 02:19:13;;;;;;;24.20;3.30;;;;;;;;;;5050462;28;20238;-67
2021/12/20 02:21:39;;;;;;;22.20;3.53;;;;;;;;;;5035447;28;20232;-67
2021/12/20 02:24:05;;;;;;;31.53;4.60;;;;;;;;;;5050196;28;20717;-67
2021/12/20 02:26:30;;;;;;;28.13;3.30;;;;;;;;;;5039078;28;20185;-67
2021/12/20 02:29:01;;;;;;;26.53;4.03;;;;;;;;;;5049771;28;20213;-67
2021/12/20 02:39:40;;;;;;;29.67;4.13;;;;;;;;;;5045824;28;20250;-67
2021/12/20 02:42:05;;;;;;;30.70;5.33;;;;;;;;;;5039427;28;20541;-67
2021/12/20 02:44:32;;;;;;;36.93;4.50;;;;;;;;;;5045108;28;20193;-67
2021/12/20 02:49:27;;;;;;;28.80;3.80;;;;;;;;;;5045914;28;20190;-67
2021/12/20 02:51:58;;;;;;;24.87;3.17;;;;;;;;;;5037719;28;20197;-67
2021/12/20 02:54:23;;;;;;;21.37;3.67;;;;;;;;;;5047752;28;20216;-67
2021/12/20 02:56:49;;;;;;;26.33;4.03;;;;;;;;;;5041703;28;20556;-67
2021/12/20 02:59:15;;;;;;;28.77;4.10;;;;;;;;;;5046725;28;20185;-67
2021/12/20 03:01:44;;;;;;;29.77;4.27;;;;;;;;;;5040042;28;20661;-67
2021/12/20 03:04:10;;;;;;;39.63;4.67;;;;;;;;;;5042281;28;20181;-67
2021/12/20 03:06:45;;;;;;;24.03;5.17;;;;;;;;;;5046083;28;20232;-67
2021/12/20 03:09:18;;;;;;;34.93;4.40;;;;;;;;;;5043703;28;20316;-67
2021/12/20 03:11:48;;;;;;;26.53;3.40;;;;;;;;;;5041079;28;20743;-67
2021/12/20 03:16:41;;;;;;;20.00;3.30;;;;;;;;;;5046623;28;20736;-67
2021/12/20 03:19:06;;;;;;;19.60;4.20;;;;;;;;;;5038540;28;20276;-67
2021/12/20 03:21:31;;;;;;;25.40;3.33;;;;;;;;;;5046634;28;20314;-67
2021/12/20 03:23:57;;;;;;;32.27;3.63;;;;;;;;;;5038013;28;20189;-67
2021/12/20 03:26:23;;;;;;;33.70;4.70;;;;;;;;;;5046285;28;20189;-67
2021/12/20 03:28:51;;;;;;;23.27;3.63;;;;;;;;;;5037517;28;20748;-67
2021/12/20 03:31:16;;;;;;;31.30;3.67;;;;;;;;;;5045612;28;20197;-67
2021/12/20 03:33:42;;;;;;;40.53;3.60;;;;;;;;;;5039558;28;20620;-67
2021/12/20 03:36:07;;;;;;;36.30;3.57;;;;;;;;;;5043985;28;20192;-67
2021/12/20 03:38:32;;;;;;;27.90;3.80;;;;;;;;;;5041231;28;20272;-67
2021/12/20 03:40:58;;;;;;;28.87;3.40;;;;;;;;;;5040178;28;20329;-67
2021/12/20 03:43:30;;;;;;;28.40;4.43;;;;;;;;;;5049932;28;20192;-67
2021/12/20 03:45:57;;;;;;;25.00;3.63;;;;;;;;;;5032905;28;20233;-67
2021/12/20 03:48:23;;;;;;;35.20;3.90;;;;;;;;;;5041982;28;20202;-67
2021/12/20 03:50:49;;;;;;;26.77;4.10;;;;;;;;;;5034354;28;20216;-67
2021/12/20 03:53:14;;;;;;;24.13;4.63;;;;;;;;;;5048070;28;20185;-67
2021/12/20 03:55:40;;;;;;;21.67;3.30;;;;;;;;;;5039070;28;20213;-67
2021/12/20 03:58:05;;;;;;;29.20;3.97;;;;;;;;;;5050059;28;20276;-67
2021/12/20 04:00:31;;;;;;;28.90;3.40;;;;;;;;;;5031286;28;20184;-67
2021/12/20 04:02:56;;;;;;;33.13;3.10;;;;;;;;;;5047868;28;20190;-68
2021/12/20 04:05:22;;;;;;;28.17;3.37;;;;;;;;;;5044006;28;20185;-67
2021/12/20 04:07:47;;;;;;;35.97;4.97;;;;;;;;;;5048748;28;20228;-67
2021/12/20 04:10:12;;;;;;;20.77;3.20;;;;;;;;;;5037058;28;23338;-67
2021/12/20 04:12:38;;;;;;;29.93;3.10;;;;;;;;;;5044120;28;20844;-66
2021/12/20 04:15:05;;;;;;;23.37;3.93;;;;;;;;;;5038690;28;20192;-66
2021/12/20 04:17:31;;;;;;;17.97;2.70;;;;;;;;;;5035381;28;20190;-66
2021/12/20 04:19:57;;;;;;;22.73;3.00;;;;;;;;;;5043240;28;20315;-67
2021/12/20 04:22:22;;;;;;;33.63;3.83;;;;;;;;;;5036422;28;20268;-67
2021/12/20 04:24:47;;;;;;;26.90;3.50;;;;;;;;;;5048197;28;20277;-67
2021/12/20 04:27:13;;;;;;;27.23;3.23;;;;;;;;;;5035058;28;20225;-67
2021/12/20 04:29:38;;;;;;;28.27;4.00;;;;;;;;;;5048870;28;20341;-66
2021/12/20 04:32:04;;;;;;;22.57;3.43;;;;;;;;;;5036047;28;20211;-67
2021/12/20 04:34:29;;;;;;;37.00;3.83;;;;;;;;;;5045402;28;20201;-66
2021/12/20 04:36:56;;;;;;;31.87;3.73;;;;;;;;;;5037763;28;20618;-67
2021/12/20 04:39:26;;;;;;;17.37;3.10;;;;;;;;;;5046369;28;20170;-67
2021/12/20 04:41:51;;;;;;;33.03;4.30;;;;;;;;;;5036727;28;20490;-67
2021/12/20 04:44:17;;;;;;;31.90;3.30;;;;;;;;;;5046487;28;20177;-67
2021/12/20 04:46:42;;;;;;;26.73;2.97;;;;;;;;;;5041362;28;20278;-67
2021/12/20 04:49:07;;;;;;;24.70;3.47;;;;;;;;;;5040563;28;20209;-66
2021/12/20 04:51:33;;;;;;;18.17;3.10;;;;;;;;;;5038794;28;20186;-67
2021/12/20 04:53:58;;;;;;;24.67;3.33;;;;;;;;;;5037551;28;20183;-66
2021/12/20 04:56:23;;;;;;;19.10;3.17;;;;;;;;;;5045592;28;20189;-66
2021/12/20 04:58:49;;;;;;;21.63;3.10;;;;;;;;;;5035867;28;20308;-66
2021/12/20 05:01:14;;;;;;;27.27;3.27;;;;;;;;;;5044611;28;20866;-67
2021/12/20 05:03:40;;;;;;;20.73;3.33;;;;;;;;;;5033220;28;20193;-67
2021/12/20 05:06:05;;;;;;;19.77;4.13;;;;;;;;;;5042305;28;20232;-67
2021/12/20 05:08:36;;;;;;;20.27;2.90;;;;;;;;;;5037850;28;20251;-66
2021/12/20 05:11:05;;;;;;;29.33;2.97;;;;;;;;;;5038395;28;20261;-66
2021/12/20 05:13:32;;;;;;;25.03;3.50;;;;;;;;;;5036272;28;20303;-67
2021/12/20 05:15:58;;;;;;;22.43;2.90;;;;;;;;;;5044674;28;20185;-67
2021/12/20 05:18:23;;;;;;;23.93;3.33;;;;;;;;;;5037919;28;20274;-66
2021/12/20 05:20:49;;;;;;;20.53;3.03;;;;;;;;;;5037590;28;20265;-68
2021/12/20 05:23:14;;;;;;;24.47;3.73;;;;;;;;;;5046129;28;20274;-68
2021/12/20 05:25:40;;;;;;;16.13;3.00;;;;;;;;;;5031359;28;20185;-68
2021/12/20 05:28:06;;;;;;;25.93;2.83;;;;;;;;;;5044692;28;20202;-68
2021/12/20 05:30:31;;;;;;;19.73;3.07;;;;;;;;;;5029002;28;20732;-68
2021/12/20 05:32:57;;;;;;;28.40;3.27;;;;;;;;;;5044405;28;20270;-68
2021/12/20 05:35:23;;;;;;;27.33;2.97;;;;;;;;;;5036323;28;20882;-68
2021/12/20 05:37:49;;;;;;;26.70;3.00;;;;;;;;;;5044241;28;20266;-68
2021/12/20 05:40:17;;;;;;;35.27;3.80;;;;;;;;;;5038099;28;20331;-66
2021/12/20 05:42:45;;;;;;;17.73;2.53;;;;;;;;;;5042374;28;20710;-66
2021/12/20 05:45:11;;;;;;;26.57;3.10;;;;;;;;;;5037305;28;20239;-67
2021/12/20 05:47:36;;;;;;;20.73;3.77;;;;;;;;;;5043164;28;20237;-67
2021/12/20 05:50:03;;;;;;;20.27;3.47;;;;;;;;;;5031418;28;20219;-67
2021/12/20 05:52:28;;;;;;;27.83;3.17;;;;;;;;;;5033279;28;20251;-67
2021/12/20 05:54:53;;;;;;;16.60;3.30;;;;;;;;;;5039076;28;20204;-66
2021/12/20 05:57:19;;;;;;;28.93;3.27;;;;;;;;;;5031390;28;20186;-67
2021/12/20 05:59:44;;;;;;;15.87;2.23;;;;;;;;;;5037064;28;20595;-66
2021/12/20 06:02:10;;;;;;;17.37;2.50;;;;;;;;;;5030914;28;20536;-67
2021/12/20 06:04:35;;;;;;;18.73;3.30;;;;;;;;;;5040111;28;20207;-67
2021/12/20 06:07:01;;;;;;;24.03;2.53;;;;;;;;;;5029268;28;20229;-67
2021/12/20 06:09:27;;;;;;;19.40;3.13;;;;;;;;;;5043741;28;20315;-67
2021/12/20 06:11:54;;;;;;;25.07;2.97;;;;;;;;;;5032457;28;20204;-66
2021/12/20 06:14:20;;;;;;;21.67;3.00;;;;;;;;;;5044623;28;20711;-66
2021/12/20 06:16:45;;;;;;;22.60;3.27;;;;;;;;;;5034813;28;20217;-66
2021/12/20 06:19:10;;;;;;;19.63;3.30;;;;;;;;;;5043401;28;20178;-66
2021/12/20 06:21:36;;;;;;;13.30;2.40;;;;;;;;;;5038501;28;20173;-66
2021/12/20 06:24:01;;;;;;;23.30;3.07;;;;;;;;;;5042928;28;20198;-67
2021/12/20 06:26:26;;;;;;;18.40;2.53;;;;;;;;;;5042650;28;20213;-66
2021/12/20 06:28:53;;;;;;;22.17;2.50;;;;;;;;;;5037971;28;20306;-67
2021/12/20 06:31:18;;;;;;;17.50;2.13;;;;;;;;;;5044274;28;20177;-67
2021/12/20 06:33:44;;;;;;;26.23;2.60;;;;;;;;;;5037402;28;20190;-67
2021/12/20 06:36:10;;;;;;;18.20;2.57;;;;;;;;;;5045002;28;20197;-67
2021/12/20 06:38:42;;;;;;;22.67;3.80;;;;;;;;;;5039830;28;20666;-67
2021/12/20 06:41:07;;;;;;;19.90;3.00;;;;;;;;;;5047170;28;20554;-67
2021/12/20 06:43:33;;;;;;;26.37;3.20;;;;;;;;;;5038515;28;20193;-67
2021/12/20 06:45:58;;;;;;;26.67;2.67;;;;;;;;;;5048685;28;20185;-67
2021/12/20 06:48:23;;;;;;;17.60;2.70;;;;;;;;;;5040852;28;20213;-67
2021/12/20 06:50:49;;;;;;;19.10;2.33;;;;;;;;;;5046855;28;20193;-67
2021/12/20 06:53:14;;;;;;;10.47;2.10;;;;;;;;;;5048395;28;20213;-67
2021/12/20 06:55:39;;;;;;;14.70;2.10;;;;;;;;;;5036148;28;20296;-67
2021/12/20 06:58:05;;;;;;;26.77;3.00;;;;;;;;;;5047505;28;20190;-67
2021/12/20 07:00:31;;;;;;;21.27;2.03;;;;;;;;;;5040868;28;20196;-67
2021/12/20 07:02:57;;;;;;;13.37;2.00;;;;;;;;;;5044828;28;20177;-67
2021/12/20 07:05:23;;;;;;;17.47;2.00;;;;;;;;;;5029419;28;20195;-67
2021/12/20 07:07:49;;;;;;;16.90;2.13;;;;;;;;;;5042144;28;20225;-67
2021/12/20 07:10:14;;;;;;;12.60;2.43;;;;;;;;;;5036391;28;20192;-67
2021/12/20 07:12:39;;;;;;;13.90;3.07;;;;;;;;;;5042291;28;20667;-67
2021/12/20 07:15:11;;;;;;;20.23;2.30;;;;;;;;;;5037111;28;20190;-67
2021/12/20 07:17:36;;;;;;;18.37;2.40;;;;;;;;;;5046376;28;20219;-67
2021/12/20 07:20:02;;;;;;;20.20;2.53;;;;;;;;;;5037438;28;24864;-67
2021/12/20 07:22:28;;;;;;;28.90;2.93;;;;;;;;;;5041927;28;20571;-67
2021/12/20 07:24:53;;;;;;;21.73;2.70;;;;;;;;;;5046476;28;20193;-67
2021/12/20 07:27:19;;;;;;;24.90;3.03;;;;;;;;;;5037115;28;20205;-67
2021/12/20 07:29:45;;;;;;;27.53;2.97;;;;;;;;;;5046989;28;20549;-67
2021/12/20 07:32:14;;;;;;;23.23;2.80;;;;;;;;;;5033097;28;20344;-67
2021/12/20 07:34:39;;;;;;;27.63;3.13;;;;;;;;;;5045265;28;20185;-67
2021/12/20 07:37:06;;;;;;;16.47;2.63;;;;;;;;;;5037972;28;20204;-67
2021/12/20 07:39:32;;;;;;;13.70;2.60;;;;;;;;;;5045428;28;20212;-68
2021/12/20 07:41:59;;;;;;;23.03;3.00;;;;;;;;;;5036330;28;20664;-67
2021/12/20 07:44:24;;;;;;;14.37;2.93;;;;;;;;;;5048099;28;20189;-68
2021/12/20 07:46:50;;;;;;;20.33;2.50;;;;;;;;;;5036618;28;20186;-67
2021/12/20 07:49:15;;;;;;;21.43;3.03;;;;;;;;;;5044225;28;20221;-67
2021/12/20 07:51:41;;;;;;;16.23;3.00;;;;;;;;;;5034831;28;20247;-67
2021/12/20 07:54:07;;;;;;;11.13;1.93;;;;;;;;;;5043950;28;20531;-67
2021/12/20 07:56:32;;;;;;;18.03;2.00;;;;;;;;;;5043787;28;20541;-67
2021/12/20 07:58:57;;;;;;;14.37;1.90;;;;;;;;;;5039885;28;20193;-67
2021/12/20 08:01:23;;;;;;;9.40;1.80;;;;;;;;;;5042090;28;20688;-67
2021/12/20 08:03:48;;;;;;;14.40;2.30;;;;;;;;;;5034557;28;20190;-67
2021/12/20 08:06:14;;;;;;;8.90;1.80;;;;;;;;;;5047135;28;20567;-67
2021/12/20 08:08:40;;;;;;;14.03;1.77;;;;;;;;;;5035251;28;20228;-67
2021/12/20 08:11:06;;;;;;;6.37;1.37;;;;;;;;;;5048972;28;20551;-67
2021/12/20 08:13:32;;;;;;;12.03;1.83;;;;;;;;;;5037398;28;20554;-67
2021/12/20 08:15:58;;;;;;;12.30;1.70;;;;;;;;;;5047666;28;20189;-67
2021/12/20 08:18:23;;;;;;;7.83;1.87;;;;;;;;;;5038554;28;20188;-67
2021/12/20 08:20:49;;;;;;;7.70;2.10;;;;;;;;;;5041825;28;20645;-67
2021/12/20 08:23:15;;;;;;;19.23;2.17;;;;;;;;;;5033703;28;20254;-67
2021/12/20 08:25:42;;;;;;;6.07;1.70;;;;;;;;;;5042722;28;20217;-67
2021/12/20 08:28:07;;;;;;;11.60;2.57;;;;;;;;;;5045405;28;20245;-67
2021/12/20 08:30:33;;;;;;;12.77;2.07;;;;;;;;;;5034108;28;20228;-67
2021/12/20 08:32:58;;;;;;;9.83;2.10;;;;;;;;;;5045230;28;20280;-66
2021/12/20 08:35:24;;;;;;;11.60;2.20;;;;;;;;;;5037030;28;20268;-66
2021/12/20 08:37:50;;;;;;;7.63;2.03;;;;;;;;;;5047151;28;20197;-66
2021/12/20 08:40:17;;;;;;;5.87;1.70;;;;;;;;;;5031746;28;20185;-66
2021/12/20 08:42:43;;;;;;;14.00;2.40;;;;;;;;;;5047665;28;20568;-66
2021/12/20 08:45:09;;;;;;;12.20;2.20;;;;;;;;;;5037714;28;20204;-67
2021/12/20 08:47:35;;;;;;;5.40;1.67;;;;;;;;;;5044881;28;20313;-67
2021/12/20 08:50:03;;;;;;;11.60;1.90;;;;;;;;;;5035379;28;20562;-67
2021/12/20 08:52:29;;;;;;;9.37;2.40;;;;;;;;;;5044316;28;20276;-67
2021/12/20 08:54:54;;;;;;;10.20;2.70;;;;;;;;;;5029788;28;20308;-67
2021/12/20 08:57:20;;;;;;;9.30;2.07;;;;;;;;;;5041986;28;20198;-67
2021/12/20 08:59:45;;;;;;;9.33;2.40;;;;;;;;;;5041254;28;20239;-67
2021/12/20 09:02:11;;;;;;;11.37;2.70;;;;;;;;;;5035926;28;20200;-67
2021/12/20 09:04:38;;;;;;;12.30;2.33;;;;;;;;;;5042408;28;20532;-67
2021/12/20 09:07:05;;;;;;;9.70;2.27;;;;;;;;;;5037798;28;20592;-67
2021/12/20 09:09:36;;;;;;;6.87;2.20;;;;;;;;;;5046201;28;20236;-67
2021/12/20 09:12:05;;;;;;;7.33;2.20;;;;;;;;;;5034741;28;20209;-67
2021/12/20 09:14:33;;;;;;;7.37;2.10;;;;;;;;;;5042967;28;20205;-67
2021/12/20 09:16:59;;;;;;;14.00;2.47;;;;;;;;;;5035102;28;20189;-67
2021/12/20 09:19:24;;;;;;;14.70;2.63;;;;;;;;;;5043678;28;20189;-67
2021/12/20 09:21:50;;;;;;;17.27;2.70;;;;;;;;;;5035226;28;20215;-67
2021/12/20 09:24:15;;;;;;;15.40;3.33;;;;;;;;;;5045932;28;20181;-67
2021/12/20 09:26:41;;;;;;;12.53;3.30;;;;;;;;;;5035973;28;20708;-67
2021/12/20 09:29:06;;;;;;;12.80;3.20;;;;;;;;;;5044917;28;20676;-68
2021/12/20 09:31:32;;;;;;;12.60;3.50;;;;;;;;;;5039357;28;20193;-66
2021/12/20 09:33:58;;;;;;;12.47;3.70;;;;;;;;;;5040998;28;20189;-66
2021/12/20 09:36:28;;;;;;;27.97;5.77;;;;;;;;;;5044818;28;20189;-66
2021/12/20 09:38:54;;;;;;;34.07;6.80;;;;;;;;;;5028079;28;20647;-66
2021/12/20 09:41:59;;;;;;;24.13;6.00;;;;;;;;;;5043725;28;20219;-67
2021/12/20 09:44:06;;;;;;;25.77;6.40;;;;;;;;;;5038258;28;20288;-67
2021/12/20 09:46:33;;;;;;;38.43;7.43;;;;;;;;;;5045364;28;20617;-67
2021/12/20 09:48:58;;;;;;;29.17;6.20;;;;;;;;;;5036673;28;20701;-66
2021/12/20 09:51:24;;;;;;;30.57;7.03;;;;;;;;;;5042532;28;20209;-67
2021/12/20 09:53:50;;;;;;;29.10;7.27;;;;;;;;;;5031345;28;20702;-67
2021/12/20 09:56:18;;;;;;;30.60;6.27;;;;;;;;;;5044687;28;20552;-67
2021/12/20 09:58:46;;;;;;;26.63;6.53;;;;;;;;;;5033479;28;20242;-67
2021/12/20 10:01:13;;;;;;;23.40;6.70;;;;;;;;;;5045963;28;20276;-68
2021/12/20 10:03:39;;;;;;;33.00;6.10;;;;;;;;;;5038449;28;20197;-68
2021/12/20 10:06:05;;;;;;;28.80;6.37;;;;;;;;;;5048244;28;20181;-68
2021/12/20 10:08:33;;;;;;;33.87;6.47;;;;;;;;;;5034794;28;20274;-67
2021/12/20 10:11:03;;;;;;;27.30;7.80;;;;;;;;;;5044899;28;20182;-68
2021/12/20 10:13:30;;;;;;;33.63;5.93;;;;;;;;;;5048757;28;20213;-67
2021/12/20 10:15:57;;;;;;;22.70;6.20;;;;;;;;;;5037684;28;20205;-67
2021/12/20 10:18:24;;;;;;;24.07;5.47;;;;;;;;;;5045802;28;20235;-68
2021/12/20 10:20:58;;;;;;;32.57;7.50;;;;;;;;;;5035932;28;20714;-68
2021/12/20 10:23:26;;;;;;;28.97;6.30;;;;;;;;;;5047188;28;20199;-67
2021/12/20 10:25:58;;;;;;;30.00;6.80;;;;;;;;;;5036397;28;20220;-67
2021/12/20 10:28:29;;;;;;;34.93;7.13;;;;;;;;;;5045962;28;20284;-67
2021/12/20 10:31:06;;;;;;;33.23;6.57;;;;;;;;;;5036476;28;20193;-67
2021/12/20 10:33:32;;;;;;;31.03;7.80;;;;;;;;;;5051128;28;20383;-67
2021/12/20 10:36:00;;;;;;;36.93;6.80;;;;;;;;;;5037874;28;20292;-66
2021/12/20 10:38:41;;;;;;;36.53;7.77;;;;;;;;;;5044267;28;20185;-68
2021/12/20 10:41:18;;;;;;;29.20;6.20;;;;;;;;;;5041181;28;20177;-67
2021/12/20 10:43:54;;;;;;;28.40;6.87;;;;;;;;;;5049386;28;20217;-67
2021/12/20 10:46:24;;;;;;;34.90;6.70;;;;;;;;;;5039107;28;20189;-67
2021/12/20 10:49:01;;;;;;;32.30;6.73;;;;;;;;;;5046096;28;20205;-66
2021/12/20 10:51:34;;;;;;;39.00;7.00;;;;;;;;;;5038134;28;20193;-66
2021/12/20 10:54:02;;;;;;;30.73;6.57;;;;;;;;;;5043903;28;20235;-66
2021/12/20 10:56:30;;;;;;;34.67;6.07;;;;;;;;;;5033188;28;20185;-65
2021/12/20 10:58:57;;;;;;;32.77;6.47;;;;;;;;;;5045762;28;20181;-68
2021/12/20 11:04:38;;;;;;;38.17;6.37;;;;;;;;;;5044621;28;20568;-67
2021/12/20 11:09:43;;;;;;;35.03;6.20;;;;;;;;;;5037987;28;20217;-67
2021/12/20 11:12:15;;;;;;;33.73;5.63;;;;;;;;;;5037745;28;20564;-67
2021/12/20 11:14:47;;;;;;;27.17;5.97;;;;;;;;;;5043785;28;20190;-67
2021/12/20 11:17:17;;;;;;;25.37;5.73;;;;;;;;;;5039305;28;20213;-67
2021/12/20 11:19:45;;;;;;;29.83;6.50;;;;;;;;;;5046925;28;20633;-67
2021/12/20 11:22:13;;;;;;;27.97;5.30;;;;;;;;;;5049710;28;20295;-66
2021/12/20 11:24:44;;;;;;;34.03;6.40;;;;;;;;;;5041235;28;20197;-66
2021/12/20 11:27:15;;;;;;;27.17;5.03;;;;;;;;;;5048810;28;20585;-67
2021/12/20 11:29:42;;;;;;;32.03;5.37;;;;;;;;;;5035576;28;20206;-66
2021/12/20 11:32:09;;;;;;;19.93;4.80;;;;;;;;;;5047842;28;20260;-67
2021/12/20 11:34:35;;;;;;;31.63;5.23;;;;;;;;;;5035894;28;20193;-67
2021/12/20 11:37:01;;;;;;;25.87;5.10;;;;;;;;;;5045205;28;20331;-67
2021/12/20 11:39:27;;;;;;;23.23;5.17;;;;;;;;;;5037984;28;20556;-67
2021/12/20 11:41:52;;;;;;;21.93;4.60;;;;;;;;;;5047108;28;20227;-67
2021/12/20 11:44:21;;;;;;;26.17;4.43;;;;;;;;;;5038549;28;20174;-67
2021/12/20 11:47:18;;;;;;;19.77;4.63;;;;;;;;;;5047399;28;20213;-67
2021/12/20 11:49:44;;;;;;;19.77;3.47;;;;;;;;;;5032487;28;20204;-67
2021/12/20 11:52:19;;;;;;;26.40;4.30;;;;;;;;;;5048418;28;20185;-67
2021/12/20 11:54:50;;;;;;;19.17;3.90;;;;;;;;;;5038890;28;20217;-67
2021/12/20 11:57:28;;;;;;;27.83;3.73;;;;;;;;;;5044412;28;20186;-67
2021/12/20 11:59:59;;;;;;;14.97;4.07;;;;;;;;;;5039431;28;20223;-67
2021/12/20 12:02:31;;;;;;;18.07;3.37;;;;;;;;;;5042351;28;20300;-66
2021/12/20 12:04:59;;;;;;;14.10;2.73;;;;;;;;;;5035801;28;20212;-66
2021/12/20 12:07:28;;;;;;;13.90;2.70;;;;;;;;;;5046701;28;20236;-66
2021/12/20 12:10:00;;;;;;;21.13;3.27;;;;;;;;;;5038200;28;20710;-66
2021/12/20 12:12:27;;;;;;;16.70;3.53;;;;;;;;;;5042635;28;20197;-66
2021/12/20 12:15:07;;;;;;;15.53;3.33;;;;;;;;;;5047583;28;20182;-66
2021/12/20 12:17:57;;;;;;;13.03;3.10;;;;;;;;;;5048408;28;20208;-67
2021/12/20 12:20:36;;;;;;;20.80;3.40;;;;;;;;;;5034699;28;20189;-66
2021/12/20 12:23:22;;;;;;;17.33;3.30;;;;;;;;;;5039906;28;20200;-66
2021/12/20 12:26:02;;;;;;;16.03;2.90;;;;;;;;;;5031181;28;20190;-66
2021/12/20 12:28:52;;;;;;;17.87;3.20;;;;;;;;;;5040758;28;20208;-66
2021/12/20 12:31:17;;;;;;;17.50;3.37;;;;;;;;;;5029828;28;20185;-66
2021/12/20 12:33:42;;;;;;;20.00;3.23;;;;;;;;;;5044963;28;20269;-66
2021/12/20 12:36:38;;;;;;;16.87;3.17;;;;;;;;;;5031296;28;20196;-66
2021/12/20 12:39:10;;;;;;;19.83;3.70;;;;;;;;;;5041713;28;20209;-67
2021/12/20 12:41:46;;;;;;;12.97;3.30;;;;;;;;;;5032101;28;20197;-66
2021/12/20 12:44:22;;;;;;;10.17;3.43;;;;;;;;;;5042936;28;20684;-66
2021/12/20 12:46:59;;;;;;;11.27;3.20;;;;;;;;;;5032865;28;20193;-67
2021/12/20 12:49:26;;;;;;;18.40;3.17;;;;;;;;;;5040317;28;20631;-66
2021/12/20 12:51:53;;;;;;;17.50;3.27;;;;;;;;;;5034231;28;20224;-67
2021/12/20 12:54:33;;;;;;;15.13;3.53;;;;;;;;;;5041454;28;20251;-66
2021/12/20 12:57:19;;;;;;;20.77;3.13;;;;;;;;;;5038471;28;20185;-67
2021/12/20 12:59:47;;;;;;;21.37;3.83;;;;;;;;;;5027527;28;20603;-67
2021/12/20 13:02:24;;;;;;;12.13;3.53;;;;;;;;;;5040350;28;20185;-67
2021/12/20 13:04:53;;;;;;;20.50;3.60;;;;;;;;;;5037507;28;20694;-66
2021/12/20 13:07:40;;;;;;;18.33;3.20;;;;;;;;;;5046660;28;20640;-67
2021/12/20 13:10:10;;;;;;;21.03;3.80;;;;;;;;;;5044268;28;20217;-67
2021/12/20 13:12:43;;;;;;;20.57;3.20;;;;;;;;;;5043152;28;20216;-67
2021/12/20 13:17:40;;;;;;;14.60;3.17;;;;;;;;;;5040547;28;20201;-67
2021/12/20 13:20:31;;;;;;;17.83;3.40;;;;;;;;;;5033708;28;20201;-67
2021/12/20 13:23:01;;;;;;;17.63;4.03;;;;;;;;;;5039115;28;20185;-67
2021/12/20 13:25:42;;;;;;;13.97;3.07;;;;;;;;;;5035552;28;20212;-67
2021/12/20 13:28:35;;;;;;;17.27;2.67;;;;;;;;;;5041976;28;20514;-67
2021/12/20 13:31:07;;;;;;;17.33;2.83;;;;;;;;;;5033573;28;20200;-66
2021/12/20 13:33:36;;;;;;;14.70;3.00;;;;;;;;;;5042237;28;20194;-66
2021/12/20 13:36:06;;;;;;;16.10;2.40;;;;;;;;;;5039633;28;20239;-67
2021/12/20 13:38:34;;;;;;;16.03;2.80;;;;;;;;;;5043906;28;20193;-67
2021/12/20 13:41:08;;;;;;;14.03;2.60;;;;;;;;;;5034740;28;20643;-67
2021/12/20 13:43:40;;;;;;;14.53;2.90;;;;;;;;;;5046673;28;20197;-67
2021/12/20 13:46:25;;;;;;;14.47;2.20;;;;;;;;;;5042325;28;20189;-66
2021/12/20 13:49:11;;;;;;;11.33;2.50;;;;;;;;;;4938243;28;10000676;-66
2021/12/20 13:51:46;;;;;;;13.57;2.17;;;;;;;;;;5033969;28;21098;-67
2021/12/20 13:54:32;;;;;;;13.87;2.50;;;;;;;;;;5038375;28;20219;-66
2021/12/20 13:57:16;;;;;;;12.57;2.17;;;;;;;;;;5038333;28;20202;-66
2021/12/20 13:59:55;;;;;;;12.80;2.17;;;;;;;;;;5046017;28;22252;-67
2021/12/20 14:02:35;;;;;;;14.43;2.90;;;;;;;;;;5033452;28;20308;-67
2021/12/20 14:05:23;;;;;;;10.20;1.60;;;;;;;;;;5043563;28;20193;-66
2021/12/20 14:07:52;;;;;;;15.27;2.33;;;;;;;;;;5034428;28;20352;-66
2021/12/20 14:10:21;;;;;;;8.77;1.97;;;;;;;;;;5045484;28;20216;-67
2021/12/20 14:13:01;;;;;;;11.03;1.87;;;;;;;;;;5034084;28;20716;-67
2021/12/20 14:15:28;;;;;;;11.50;1.60;;;;;;;;;;5037928;28;20194;-67
2021/12/20 14:17:56;;;;;;;8.60;1.80;;;;;;;;;;5032019;28;20705;-67
2021/12/20 14:20:37;;;;;;;6.13;1.47;;;;;;;;;;5044567;28;20222;-67
2021/12/20 14:23:25;;;;;;;8.47;1.50;;;;;;;;;;5038578;28;20661;-67
2021/12/20 14:26:10;;;;;;;8.60;1.50;;;;;;;;;;5042446;28;20193;-67
2021/12/20 14:28:42;;;;;;;7.90;1.57;;;;;;;;;;5027860;28;20264;-67
2021/12/20 14:31:21;;;;;;;9.27;1.63;;;;;;;;;;5042411;28;20593;-67
2021/12/20 14:33:52;;;;;;;10.23;1.93;;;;;;;;;;5035388;28;20657;-67
2021/12/20 14:36:19;;;;;;;7.43;1.60;;;;;;;;;;5043017;28;20186;-66
2021/12/20 14:38:55;;;;;;;14.67;2.30;;;;;;;;;;5036058;28;20215;-66
2021/12/20 14:41:33;;;;;;;9.97;1.43;;;;;;;;;;5036459;28;20648;-67
2021/12/20 14:44:32;;;;;;;9.57;1.50;;;;;;;;;;5037402;28;20186;-68
2021/12/20 14:47:05;;;;;;;8.27;1.60;;;;;;;;;;5045687;28;20588;-68
2021/12/20 14:49:42;;;;;;;9.63;1.60;;;;;;;;;;5036532;28;20208;-67
2021/12/20 14:52:14;;;;;;;10.20;1.90;;;;;;;;;;5043283;28;20723;-67
2021/12/20 14:54:50;;;;;;;12.37;2.07;;;;;;;;;;5027442;28;20217;-67
2021/12/20 14:57:18;;;;;;;9.40;2.07;;;;;;;;;;5040189;28;20189;-67
2021/12/20 14:59:47;;;;;;;12.00;1.83;;;;;;;;;;5035379;28;20523;-67
2021/12/20 15:02:13;;;;;;;11.37;2.13;;;;;;;;;;5060043;28;20176;-67
2021/12/20 15:04:41;;;;;;;7.67;3.23;;;;;;;;;;5031458;28;20270;-67